Time;durP1;ratioP1;P1;durP2;ratioP2;P2;SDS_P1;SDS_P2;PMS_P1;PMS_P2;Temp;Humidity;BMP_temperature;BMP_pressure;BME280_temperature;BME280_humidity;BME280_pressure;Samples;Min_cycle;Max_cycle;Signal;HPM_P1;HPM_P2
2022/10/11 00:01:50;;;;;;;20.40;11.13;;;11.20;99.90;;;;;;4996895;28;20081;-74
2022/10/11 00:04:16;;;;;;;16.60;10.90;;;11.20;99.90;;;;;;4979588;28;20034;-74
2022/10/11 00:06:42;;;;;;;14.02;10.32;;;11.20;99.90;;;;;;4996556;28;20027;-74
2022/10/11 00:09:10;;;;;;;15.95;10.32;;;11.20;99.90;;;;;;4996809;28;20033;-74
2022/10/11 00:11:37;;;;;;;20.02;11.27;;;11.20;99.90;;;;;;4979393;28;20057;-74
2022/10/11 00:14:03;;;;;;;18.42;10.90;;;11.20;99.90;;;;;;4996710;28;20034;-74
2022/10/11 00:16:29;;;;;;;20.05;10.25;;;11.20;99.90;;;;;;4979111;28;20072;-74
2022/10/11 00:18:55;;;;;;;19.00;10.85;;;11.20;99.90;;;;;;4996858;28;20475;-74
2022/10/11 00:21:21;;;;;;;16.83;10.73;;;11.20;99.90;;;;;;4978266;28;20030;-74
2022/10/11 00:23:47;;;;;;;15.55;11.05;;;11.20;99.90;;;;;;4979416;28;20038;-74
2022/10/11 00:26:13;;;;;;;19.77;11.20;;;11.10;99.90;;;;;;4996475;28;20085;-74
2022/10/11 00:28:39;;;;;;;16.98;11.52;;;11.10;99.90;;;;;;4979126;28;20026;-74
2022/10/11 00:31:11;;;;;;;19.67;11.57;;;11.10;99.90;;;;;;4996435;28;20030;-74
2022/10/11 00:33:37;;;;;;;15.02;10.27;;;11.10;99.90;;;;;;4978992;28;20030;-74
2022/10/11 00:36:03;;;;;;;16.23;11.00;;;11.10;99.90;;;;;;4996352;28;20073;-74
2022/10/11 00:38:29;;;;;;;14.68;10.98;;;11.10;99.90;;;;;;4996230;28;20088;-74
2022/10/11 00:40:55;;;;;;;16.95;12.10;;;11.10;99.90;;;;;;4978677;28;20026;-74
2022/10/11 00:43:25;;;;;;;21.40;11.73;;;11.10;99.90;;;;;;4996242;28;20027;-74
2022/10/11 00:45:56;;;;;;;21.50;12.20;;;11.10;99.90;;;;;;4996669;28;20034;-74
2022/10/11 00:48:27;;;;;;;18.65;12.43;;;11.20;99.90;;;;;;4995821;28;20057;-74
2022/10/11 00:50:56;;;;;;;22.35;12.38;;;11.20;99.90;;;;;;4996416;28;20037;-74
2022/10/11 00:53:22;;;;;;;17.77;12.18;;;11.20;99.90;;;;;;4995728;28;20026;-74
2022/10/11 00:55:56;;;;;;;19.95;12.18;;;11.20;99.90;;;;;;4995982;28;20415;-74
2022/10/11 00:58:22;;;;;;;22.65;12.57;;;11.20;99.90;;;;;;4979143;28;20027;-74
2022/10/11 01:00:49;;;;;;;16.50;11.88;;;11.20;99.90;;;;;;4995624;28;20034;-74
2022/10/11 01:03:17;;;;;;;22.83;11.77;;;11.20;99.90;;;;;;4978332;28;20033;-74
2022/10/11 01:05:43;;;;;;;17.50;11.95;;;11.20;99.90;;;;;;4979069;28;20030;-74
2022/10/11 01:08:09;;;;;;;16.10;12.07;;;11.20;99.90;;;;;;4995700;28;20109;-74
2022/10/11 01:10:35;;;;;;;15.60;10.95;;;11.20;99.90;;;;;;4978369;28;20125;-74
2022/10/11 01:13:21;;;;;;;14.73;11.88;;;11.20;99.90;;;;;;4995301;28;20025;-74
2022/10/11 01:16:05;;;;;;;18.58;11.57;;;11.30;99.90;;;;;;4978455;28;20038;-74
2022/10/11 01:19:13;;;;;;;19.75;12.07;;;11.30;99.90;;;;;;4977730;28;20501;-74
2022/10/11 01:21:51;;;;;;;14.23;11.35;;;11.30;99.90;;;;;;4941631;28;20057;-74
2022/10/11 01:25:09;;;;;;;17.90;11.95;;;11.30;99.90;;;;;;4978043;28;20035;-74
2022/10/11 01:27:54;;;;;;;12.60;9.03;;;11.30;99.90;;;;;;4982211;28;20089;-74
2022/10/11 01:30:27;;;;;;;16.30;11.45;;;11.30;99.90;;;;;;4995270;28;20272;-74
2022/10/11 01:32:59;;;;;;;14.90;11.00;;;11.20;99.90;;;;;;4978258;28;20034;-74
2022/10/11 01:35:45;;;;;;;20.95;11.73;;;11.20;99.90;;;;;;4977845;28;20034;-74
2022/10/11 01:38:14;;;;;;;16.90;11.32;;;11.20;99.90;;;;;;4977680;28;20034;-74
2022/10/11 01:40:55;;;;;;;17.23;11.77;;;11.20;99.90;;;;;;4995302;28;20437;-74
2022/10/11 01:43:22;;;;;;;18.42;12.27;;;11.20;99.90;;;;;;4994803;28;20482;-74
2022/10/11 01:45:53;;;;;;;19.75;12.30;;;11.10;99.90;;;;;;4995035;28;20030;-74
2022/10/11 01:48:20;;;;;;;17.50;11.77;;;11.10;99.90;;;;;;4995153;28;20041;-74
2022/10/11 01:50:50;;;;;;;15.73;11.52;;;11.10;99.90;;;;;;4994920;28;20027;-74
2022/10/11 01:53:32;;;;;;;17.25;12.10;;;11.20;99.90;;;;;;4977512;28;20084;-74
2022/10/11 01:56:20;;;;;;;16.48;12.13;;;11.10;99.90;;;;;;4994895;28;20033;-74
2022/10/11 01:58:56;;;;;;;16.80;11.63;;;11.10;99.90;;;;;;4994958;28;20058;-74
2022/10/11 02:01:44;;;;;;;29.73;12.90;;;11.10;99.90;;;;;;4995044;28;20030;-74
2022/10/11 02:04:22;;;;;;;19.40;12.70;;;11.10;99.90;;;;;;4977641;28;20497;-74
2022/10/11 02:07:05;;;;;;;15.68;11.23;;;11.20;99.90;;;;;;4994774;28;20026;-74
2022/10/11 02:09:43;;;;;;;16.48;11.82;;;11.10;99.90;;;;;;4994958;28;20038;-74
2022/10/11 02:12:11;;;;;;;16.15;12.05;;;11.10;99.90;;;;;;4994653;28;20038;-74
2022/10/11 02:14:46;;;;;;;15.70;11.63;;;11.20;99.90;;;;;;4994326;28;20032;-74
2022/10/11 02:17:28;;;;;;;18.27;11.20;;;11.20;99.90;;;;;;4976580;28;20047;-74
2022/10/11 02:19:58;;;;;;;20.48;11.02;;;11.10;99.90;;;;;;4994271;28;20379;-74
2022/10/11 02:22:34;;;;;;;19.67;11.38;;;11.10;99.90;;;;;;4994461;28;20030;-74
2022/10/11 02:25:04;;;;;;;20.23;11.82;;;11.10;99.90;;;;;;4977232;28;20026;-74
2022/10/11 02:27:35;;;;;;;19.17;11.52;;;11.20;99.90;;;;;;4977077;28;20027;-74
2022/10/11 02:30:06;;;;;;;17.58;11.85;;;11.20;99.90;;;;;;4977018;28;20077;-74
2022/10/11 02:32:32;;;;;;;15.90;11.90;;;11.20;99.90;;;;;;4976936;28;20113;-74
2022/10/11 02:35:00;;;;;;;15.68;11.65;;;11.20;99.90;;;;;;4976829;28;20038;-74
2022/10/11 02:37:41;;;;;;;17.55;10.80;;;11.30;99.90;;;;;;4976966;28;20026;-74
2022/10/11 02:40:31;;;;;;;17.52;11.27;;;11.30;99.90;;;;;;4976918;28;20536;-74
2022/10/11 02:43:22;;;;;;;17.58;11.88;;;11.30;99.90;;;;;;4994571;28;20027;-74
2022/10/11 02:46:00;;;;;;;15.48;10.27;;;11.40;99.90;;;;;;4980868;28;20561;-74
2022/10/11 02:48:28;;;;;;;17.42;11.68;;;11.40;99.90;;;;;;4980879;28;20031;-74
2022/10/11 02:50:55;;;;;;;18.35;11.38;;;11.40;99.90;;;;;;4998399;28;20038;-74
2022/10/11 02:53:22;;;;;;;20.80;11.52;;;11.50;99.90;;;;;;4998496;28;20038;-74
2022/10/11 02:55:52;;;;;;;16.63;10.80;;;11.50;99.90;;;;;;4998234;28;20027;-74
2022/10/11 02:58:18;;;;;;;13.25;9.43;;;11.50;99.90;;;;;;4980655;28;20030;-74
2022/10/11 03:00:44;;;;;;;13.38;10.25;;;11.50;99.90;;;;;;4980534;28;20125;-74
2022/10/11 03:03:10;;;;;;;15.95;10.05;;;11.50;99.90;;;;;;4998004;28;20486;-74
2022/10/11 03:05:39;;;;;;;18.33;11.57;;;11.50;99.90;;;;;;4998017;28;20080;-74
2022/10/11 03:08:10;;;;;;;16.00;10.93;;;11.60;99.90;;;;;;4997928;28;20022;-74
2022/10/11 03:10:37;;;;;;;16.35;11.18;;;11.60;99.90;;;;;;4997935;28;20041;-74
2022/10/11 03:13:03;;;;;;;20.02;10.65;;;11.60;99.90;;;;;;4998183;28;20034;-74
2022/10/11 03:15:30;;;;;;;18.58;11.30;;;11.60;99.90;;;;;;4980474;28;20121;-74
2022/10/11 03:17:56;;;;;;;16.88;11.23;;;11.60;99.90;;;;;;4980193;28;20561;-76
2022/10/11 03:20:23;;;;;;;19.35;11.23;;;11.70;99.90;;;;;;4998494;28;20034;-75
2022/10/11 03:22:48;;;;;;;16.25;11.45;;;11.70;99.90;;;;;;4980658;28;20034;-76
2022/10/11 03:25:14;;;;;;;18.02;11.77;;;11.70;99.90;;;;;;4980222;28;20458;-75
2022/10/11 03:27:40;;;;;;;18.33;11.68;;;11.70;99.90;;;;;;4980201;28;20023;-75
2022/10/11 03:30:07;;;;;;;17.38;11.52;;;11.70;99.90;;;;;;4997620;28;20434;-75
2022/10/11 03:32:33;;;;;;;18.80;11.73;;;11.70;99.90;;;;;;4980034;28;20137;-74
2022/10/11 03:34:59;;;;;;;15.80;11.70;;;11.70;99.90;;;;;;4997264;28;20089;-75
2022/10/11 03:37:25;;;;;;;18.38;12.13;;;11.70;99.90;;;;;;4997112;28;20030;-75
2022/10/11 03:39:51;;;;;;;19.58;14.07;;;11.70;99.90;;;;;;4997349;28;20065;-75
2022/10/11 03:42:16;;;;;;;15.85;12.80;;;11.70;99.90;;;;;;4979808;28;20054;-75
2022/10/11 03:44:42;;;;;;;17.10;11.93;;;11.70;99.90;;;;;;4979879;28;20026;-74
2022/10/11 03:47:08;;;;;;;22.70;12.20;;;11.70;99.90;;;;;;4997729;28;20022;-74
2022/10/11 03:49:34;;;;;;;20.48;12.57;;;11.70;99.90;;;;;;4996868;28;20383;-74
2022/10/11 03:51:59;;;;;;;23.08;13.07;;;11.70;99.90;;;;;;4979687;28;20030;-74
2022/10/11 03:54:25;;;;;;;19.77;13.18;;;11.60;99.90;;;;;;4978963;28;20062;-74
2022/10/11 03:56:51;;;;;;;15.10;12.60;;;11.60;99.90;;;;;;4979086;28;20493;-74
2022/10/11 03:59:16;;;;;;;22.50;14.77;;;11.60;99.90;;;;;;4979574;28;20027;-74
2022/10/11 04:01:42;;;;;;;22.10;13.40;;;11.50;99.90;;;;;;4979822;28;20034;-74
2022/10/11 04:04:08;;;;;;;20.33;12.85;;;11.50;99.90;;;;;;4997348;28;20026;-75
2022/10/11 04:06:34;;;;;;;20.15;12.80;;;11.40;99.90;;;;;;4979375;28;20033;-75
2022/10/11 04:09:00;;;;;;;19.65;13.75;;;11.40;99.90;;;;;;4996865;28;20027;-72
2022/10/11 04:11:25;;;;;;;21.05;14.32;;;11.30;99.90;;;;;;4996499;28;20030;-72
2022/10/11 04:13:51;;;;;;;20.02;13.13;;;11.30;99.90;;;;;;4996774;28;20069;-73
2022/10/11 04:16:17;;;;;;;25.27;13.85;;;11.30;99.90;;;;;;4996289;28;20482;-72
2022/10/11 04:18:42;;;;;;;21.90;13.98;;;11.20;99.90;;;;;;4996717;28;20034;-72
2022/10/11 04:21:08;;;;;;;23.17;14.35;;;11.20;99.90;;;;;;4996537;28;20470;-72
2022/10/11 04:23:34;;;;;;;23.20;13.55;;;11.20;99.90;;;;;;4979189;28;20022;-75
2022/10/11 04:26:04;;;;;;;20.45;14.35;;;11.10;99.90;;;;;;4996507;28;20514;-75
2022/10/11 04:28:29;;;;;;;22.20;13.50;;;11.10;99.90;;;;;;4979091;28;20034;-75
2022/10/11 04:30:55;;;;;;;24.17;14.55;;;11.10;99.90;;;;;;4979130;28;20382;-76
2022/10/11 04:33:21;;;;;;;21.52;14.43;;;11.00;99.90;;;;;;4978873;28;20022;-75
2022/10/11 04:35:46;;;;;;;24.20;14.40;;;11.00;99.90;;;;;;4978967;28;20080;-75
2022/10/11 04:38:12;;;;;;;28.95;16.48;;;11.00;99.90;;;;;;4996358;28;20485;-75
2022/10/11 04:40:38;;;;;;;27.45;15.65;;;11.00;99.90;;;;;;4978748;28;20438;-75
2022/10/11 04:43:03;;;;;;;28.50;16.40;;;11.00;99.90;;;;;;4978554;28;20459;-75
2022/10/11 04:45:29;;;;;;;32.95;17.13;;;11.00;99.90;;;;;;4978576;28;20062;-75
2022/10/11 04:47:55;;;;;;;25.13;16.17;;;11.00;99.90;;;;;;4996121;28;20081;-75
2022/10/11 04:50:20;;;;;;;26.50;16.23;;;10.90;99.90;;;;;;4978139;28;20080;-75
2022/10/11 04:52:46;;;;;;;33.03;15.90;;;10.90;99.90;;;;;;4995645;28;20049;-76
2022/10/11 04:55:11;;;;;;;30.10;17.33;;;10.90;99.90;;;;;;4978356;28;20026;-75
2022/10/11 04:57:37;;;;;;;24.75;15.65;;;10.90;99.90;;;;;;4995887;28;20030;-75
2022/10/11 05:00:04;;;;;;;25.10;17.38;;;10.90;99.90;;;;;;4978830;28;20062;-76
2022/10/11 05:02:30;;;;;;;31.95;16.25;;;10.90;99.90;;;;;;4995864;28;20050;-76
2022/10/11 05:04:55;;;;;;;29.30;15.70;;;10.90;99.90;;;;;;4978713;28;20383;-76
2022/10/11 05:07:21;;;;;;;26.63;16.23;;;10.80;99.90;;;;;;4977504;28;20506;-76
2022/10/11 05:09:47;;;;;;;25.10;16.13;;;10.80;99.90;;;;;;4978236;28;20061;-76
2022/10/11 05:12:12;;;;;;;28.80;16.30;;;10.80;99.90;;;;;;4995531;28;20062;-76
2022/10/11 05:14:38;;;;;;;24.00;16.45;;;10.80;99.90;;;;;;4995902;28;20041;-76
2022/10/11 05:17:04;;;;;;;30.67;17.75;;;10.70;99.90;;;;;;4977827;28;20074;-76
2022/10/11 05:19:29;;;;;;;28.40;17.30;;;10.70;99.90;;;;;;4977976;28;20037;-76
2022/10/11 05:21:56;;;;;;;26.48;16.55;;;10.70;99.90;;;;;;4995202;28;20049;-76
2022/10/11 05:24:22;;;;;;;28.73;15.05;;;10.70;99.90;;;;;;4977975;28;20505;-76
2022/10/11 05:26:48;;;;;;;25.58;15.10;;;10.70;99.90;;;;;;4995089;28;20054;-76
2022/10/11 05:29:14;;;;;;;30.13;16.35;;;10.60;99.90;;;;;;4977478;28;20030;-76
2022/10/11 05:31:39;;;;;;;31.23;16.92;;;10.70;99.90;;;;;;4977687;28;20035;-76
2022/10/11 05:34:05;;;;;;;28.92;18.70;;;10.60;99.90;;;;;;4977719;28;20547;-76
2022/10/11 05:36:31;;;;;;;25.48;16.10;;;10.60;99.90;;;;;;4994980;28;20459;-76
2022/10/11 05:38:56;;;;;;;27.92;16.65;;;10.60;99.90;;;;;;4977989;28;20054;-76
2022/10/11 05:41:22;;;;;;;27.83;17.20;;;10.60;99.90;;;;;;4977481;28;20045;-76
2022/10/11 05:43:48;;;;;;;29.30;17.83;;;10.60;99.90;;;;;;4994969;28;20030;-76
2022/10/11 05:46:14;;;;;;;28.23;17.85;;;10.60;99.90;;;;;;4994878;28;20081;-75
2022/10/11 05:48:40;;;;;;;33.22;17.48;;;10.70;99.90;;;;;;4977537;28;20034;-76
2022/10/11 05:51:08;;;;;;;30.38;18.00;;;10.70;99.90;;;;;;4994947;28;20038;-76
2022/10/11 05:53:34;;;;;;;27.10;18.30;;;10.80;99.90;;;;;;4994925;28;20105;-76
2022/10/11 05:56:00;;;;;;;30.40;17.40;;;10.80;99.90;;;;;;4977392;28;20054;-76
2022/10/11 05:58:26;;;;;;;30.95;17.63;;;10.90;99.90;;;;;;4977367;28;20386;-76
2022/10/11 06:00:51;;;;;;;29.73;17.35;;;10.90;99.90;;;;;;4994456;28;20532;-77
2022/10/11 06:03:18;;;;;;;30.23;17.48;;;10.90;99.90;;;;;;4976934;28;20387;-76
2022/10/11 06:05:44;;;;;;;30.23;17.25;;;11.00;99.90;;;;;;4977116;28;20027;-76
2022/10/11 06:08:10;;;;;;;25.73;17.13;;;11.00;99.90;;;;;;4994911;28;20027;-76
2022/10/11 06:10:36;;;;;;;25.15;17.20;;;11.00;99.90;;;;;;4994601;28;20026;-76
2022/10/11 06:13:03;;;;;;;25.85;16.25;;;11.10;99.90;;;;;;4994728;28;20455;-76
2022/10/11 06:15:29;;;;;;;27.30;16.65;;;11.10;99.90;;;;;;4994247;28;20037;-76
2022/10/11 06:17:55;;;;;;;23.42;16.10;;;11.20;99.90;;;;;;4975950;28;20380;-76
2022/10/11 06:20:20;;;;;;;26.25;15.80;;;11.40;99.90;;;;;;4994432;28;20033;-76
2022/10/11 06:22:46;;;;;;;28.23;15.98;;;11.60;99.90;;;;;;4977300;28;20117;-76
2022/10/11 06:25:11;;;;;;;22.90;14.32;;;11.70;99.90;;;;;;4976994;28;20026;-76
2022/10/11 06:27:37;;;;;;;29.90;15.00;;;11.90;99.90;;;;;;4994717;28;20383;-76
2022/10/11 06:30:04;;;;;;;21.17;12.52;;;12.10;99.90;;;;;;4994456;28;20030;-76
2022/10/11 06:32:30;;;;;;;20.83;11.27;;;12.30;99.90;;;;;;4976736;28;20034;-76
2022/10/11 06:34:55;;;;;;;15.48;10.20;;;12.50;99.90;;;;;;4976941;28;20029;-76
2022/10/11 06:37:21;;;;;;;14.93;10.27;;;12.70;99.90;;;;;;4977363;28;20117;-76
2022/10/11 06:39:46;;;;;;;16.80;10.90;;;12.80;99.90;;;;;;4994206;28;20390;-76
2022/10/11 06:42:12;;;;;;;22.17;12.13;;;12.90;99.90;;;;;;4994301;28;20042;-76
2022/10/11 06:44:38;;;;;;;14.55;10.05;;;13.00;99.90;;;;;;4994044;28;20033;-76
2022/10/11 06:47:07;;;;;;;15.35;8.85;;;13.00;99.90;;;;;;4994001;28;20539;-76
2022/10/11 06:49:33;;;;;;;15.15;8.73;;;13.20;99.90;;;;;;4976526;28;20037;-76
2022/10/11 06:51:59;;;;;;;19.30;9.68;;;13.20;99.90;;;;;;4994108;28;20034;-76
2022/10/11 06:54:25;;;;;;;26.00;9.30;;;13.30;99.90;;;;;;4977122;28;20117;-76
2022/10/11 06:56:50;;;;;;;21.92;9.13;;;13.40;99.90;;;;;;4993907;28;20069;-76
2022/10/11 06:59:16;;;;;;;18.25;8.70;;;13.50;99.90;;;;;;4976722;28;20033;-76
2022/10/11 07:01:42;;;;;;;18.67;9.00;;;13.50;99.90;;;;;;4976708;28;20042;-76
2022/10/11 07:04:08;;;;;;;17.75;8.32;;;13.50;99.90;;;;;;4976563;28;20368;-76
2022/10/11 07:06:37;;;;;;;17.65;8.85;;;13.70;99.90;;;;;;4994048;28;20437;-76
2022/10/11 07:09:04;;;;;;;21.73;8.35;;;13.90;99.90;;;;;;4993796;28;20030;-76
2022/10/11 07:11:29;;;;;;;17.00;7.88;;;14.20;99.90;;;;;;4976560;28;20045;-76
2022/10/11 07:14:00;;;;;;;14.15;7.78;;;14.50;99.90;;;;;;4977036;28;20026;-76
2022/10/11 07:16:27;;;;;;;22.60;8.73;;;14.90;99.90;;;;;;4993526;28;20418;-76
2022/10/11 07:18:55;;;;;;;13.10;7.57;;;15.30;99.90;;;;;;4993990;28;20023;-76
2022/10/11 07:21:21;;;;;;;9.65;6.70;;;15.70;99.90;;;;;;4993839;28;20035;-76
2022/10/11 07:23:47;;;;;;;13.05;6.40;;;16.00;99.90;;;;;;4993869;28;20038;-76
2022/10/11 07:26:13;;;;;;;11.07;5.88;;;16.40;99.90;;;;;;4976536;28;20026;-76
2022/10/11 07:28:39;;;;;;;15.32;5.97;;;16.80;99.90;;;;;;4993612;28;20034;-76
2022/10/11 07:31:08;;;;;;;11.88;5.60;;;17.20;99.90;;;;;;4997321;28;20126;-76
2022/10/11 07:33:33;;;;;;;11.10;6.30;;;17.60;99.90;;;;;;4980008;28;20054;-76
2022/10/11 07:35:59;;;;;;;14.75;5.90;;;17.90;99.90;;;;;;4980057;28;20140;-76
2022/10/11 07:38:25;;;;;;;9.45;5.50;;;18.10;99.90;;;;;;4997162;28;20105;-76
2022/10/11 07:40:51;;;;;;;13.20;4.85;;;18.10;99.90;;;;;;4997798;28;20113;-76
2022/10/11 07:43:17;;;;;;;9.30;5.65;;;18.30;99.90;;;;;;4979849;28;20030;-76
2022/10/11 07:45:50;;;;;;;9.30;5.18;;;18.60;99.90;;;;;;4979863;28;20033;-76
2022/10/11 07:48:15;;;;;;;11.73;5.43;;;19.00;99.90;;;;;;4997055;28;20382;-76
2022/10/11 07:50:41;;;;;;;13.75;5.03;;;19.50;99.90;;;;;;4979682;28;20038;-76
2022/10/11 07:53:07;;;;;;;11.02;4.90;;;19.70;99.90;;;;;;4980169;28;20026;-75
2022/10/11 07:55:39;;;;;;;10.90;4.57;;;20.00;99.90;;;;;;4980333;28;20061;-75
2022/10/11 07:58:12;;;;;;;12.18;5.05;;;20.10;99.90;;;;;;4997566;28;20030;-75
2022/10/11 08:00:41;;;;;;;22.35;5.20;;;20.40;99.90;;;;;;4997420;28;20026;-76
2022/10/11 08:03:07;;;;;;;11.52;4.45;;;20.60;99.90;;;;;;4997526;28;20022;-76
2022/10/11 08:05:33;;;;;;;9.32;4.45;;;20.80;99.90;;;;;;4979319;28;20037;-76
2022/10/11 08:07:59;;;;;;;11.27;5.00;;;20.80;99.90;;;;;;4979134;28;20089;-75
2022/10/11 08:10:26;;;;;;;11.20;4.68;;;20.90;99.90;;;;;;4979273;28;20026;-75
2022/10/11 08:12:52;;;;;;;8.02;5.25;;;20.80;99.90;;;;;;4997100;28;20029;-75
2022/10/11 08:15:19;;;;;;;10.68;5.00;;;20.50;99.90;;;;;;4996599;28;20153;-76
2022/10/11 08:17:45;;;;;;;10.27;4.90;;;20.50;99.90;;;;;;4996480;28;20061;-75
2022/10/11 08:20:10;;;;;;;8.80;4.35;;;20.90;99.90;;;;;;4996573;28;20145;-75
2022/10/11 08:22:36;;;;;;;11.45;4.55;;;21.50;99.90;;;;;;4978889;28;20133;-76
2022/10/11 08:25:02;;;;;;;10.02;4.38;;;21.80;99.70;;;;;;4978739;28;20359;-76
2022/10/11 08:27:27;;;;;;;7.95;4.60;;;21.90;99.10;;;;;;4996470;28;20030;-76
2022/10/11 08:29:53;;;;;;;11.13;4.53;;;22.00;98.60;;;;;;4996427;28;20432;-76
2022/10/11 08:32:19;;;;;;;8.73;4.32;;;22.20;97.60;;;;;;4996650;28;20038;-76
2022/10/11 08:34:44;;;;;;;9.98;4.82;;;22.30;97.10;;;;;;4978820;28;20455;-76
2022/10/11 08:37:10;;;;;;;8.05;4.35;;;22.10;96.60;;;;;;4978725;28;20037;-76
2022/10/11 08:39:36;;;;;;;13.25;5.10;;;21.90;97.50;;;;;;4978796;28;20081;-76
2022/10/11 08:42:12;;;;;;;8.88;4.68;;;21.80;97.30;;;;;;4977941;28;20034;-76
2022/10/11 08:45:03;;;;;;;9.02;4.82;;;21.30;97.70;;;;;;4995974;28;20022;-76
2022/10/11 08:47:43;;;;;;;13.68;5.10;;;21.00;98.30;;;;;;4978647;28;20467;-76
2022/10/11 08:50:18;;;;;;;12.40;5.15;;;21.20;97.90;;;;;;4996393;28;20077;-75
2022/10/11 08:52:52;;;;;;;8.38;4.82;;;21.60;97.60;;;;;;4978759;28;20030;-76
2022/10/11 08:55:41;;;;;;;11.20;4.78;;;22.10;96.50;;;;;;4996016;28;20105;-76
2022/10/11 08:58:15;;;;;;;12.07;5.05;;;22.20;96.20;;;;;;4996019;28;20373;-76
2022/10/11 09:00:42;;;;;;;7.78;5.18;;;22.10;95.50;;;;;;4978594;28;20034;-76
2022/10/11 09:03:17;;;;;;;8.40;5.13;;;21.80;96.20;;;;;;4978472;28;20030;-76
2022/10/11 09:06:11;;;;;;;12.55;5.28;;;21.20;96.70;;;;;;4978242;28;20026;-76
2022/10/11 09:08:39;;;;;;;11.30;5.50;;;21.60;96.90;;;;;;4952007;28;20038;-76
2022/10/11 09:11:19;;;;;;;8.40;4.78;;;21.70;96.00;;;;;;4995722;28;20053;-76
2022/10/11 09:13:55;;;;;;;11.20;4.78;;;21.60;96.40;;;;;;4995766;28;20061;-75
2022/10/11 09:16:44;;;;;;;7.88;4.40;;;22.20;95.80;;;;;;4995038;28;20058;-76
2022/10/11 09:19:19;;;;;;;10.40;5.15;;;23.10;93.20;;;;;;4978618;28;20034;-76
2022/10/11 09:22:09;;;;;;;7.30;5.00;;;23.30;91.70;;;;;;4978376;28;20438;-75
2022/10/11 09:24:51;;;;;;;6.90;4.60;;;23.20;91.50;;;;;;4978111;28;20078;-76
2022/10/11 09:27:28;;;;;;;10.68;4.97;;;23.20;91.90;;;;;;4995278;28;20030;-76
2022/10/11 09:30:10;;;;;;;11.02;5.05;;;23.60;90.70;;;;;;4977889;28;20065;-76
2022/10/11 09:32:59;;;;;;;10.48;4.68;;;23.30;90.90;;;;;;4995389;28;20030;-76
2022/10/11 09:35:29;;;;;;;12.32;5.35;;;24.30;89.70;;;;;;4929498;28;20471;-76
2022/10/11 09:38:25;;;;;;;9.77;4.80;;;25.30;84.30;;;;;;4995195;28;20022;-76
2022/10/11 09:41:11;;;;;;;8.85;5.00;;;26.20;78.90;;;;;;4995042;28;20132;-76
2022/10/11 09:43:37;;;;;;;9.77;4.95;;;26.70;73.30;;;;;;4995156;28;20097;-76
2022/10/11 09:46:09;;;;;;;9.00;4.93;;;26.60;73.40;;;;;;4977596;28;20114;-76
2022/10/11 09:48:40;;;;;;;10.52;5.00;;;26.90;71.60;;;;;;4995037;28;20026;-76
2022/10/11 09:51:13;;;;;;;10.93;5.20;;;26.70;70.80;;;;;;4994989;28;20034;-76
2022/10/11 09:53:56;;;;;;;10.35;5.00;;;26.70;70.00;;;;;;4994873;28;20085;-76
2022/10/11 09:56:24;;;;;;;9.15;5.10;;;26.70;68.60;;;;;;4994885;28;20030;-76
2022/10/11 09:59:17;;;;;;;9.68;3.72;;;26.00;69.00;;;;;;4994872;28;20034;-76
2022/10/11 10:01:43;;;;;;;8.55;4.85;;;25.70;69.80;;;;;;4994800;28;20043;-76
2022/10/11 10:04:12;;;;;;;9.13;4.40;;;25.60;70.00;;;;;;4977295;28;20149;-75
2022/10/11 10:06:38;;;;;;;;;;;26.00;70.30;;;;;;4994794;28;20053;-76
2022/10/11 10:09:29;;;;;;;14.05;5.40;;;26.10;68.60;;;;;;4977692;28;19906;-75
2022/10/11 10:11:56;;;;;;;18.15;4.20;;;26.00;68.30;;;;;;4977213;28;20026;-76
2022/10/11 10:14:28;;;;;;;9.80;4.50;;;25.80;67.40;;;;;;4994293;28;20491;-76
2022/10/11 10:17:15;;;;;;;6.55;3.67;;;25.50;66.00;;;;;;4976948;28;20050;-76
2022/10/11 10:19:54;;;;;;;7.45;4.32;;;25.40;66.80;;;;;;4977408;28;20458;-76
2022/10/11 10:22:24;;;;;;;11.75;4.85;;;25.30;67.80;;;;;;4994387;28;20513;-76
2022/10/11 10:24:50;;;;;;;15.63;4.55;;;25.60;66.50;;;;;;4994585;28;20486;-76
2022/10/11 10:27:20;;;;;;;10.90;4.55;;;25.20;66.20;;;;;;4977158;28;20066;-76
2022/10/11 10:30:08;;;;;;;11.85;4.75;;;25.30;67.20;;;;;;4994418;28;20029;-75
2022/10/11 10:32:46;;;;;;;12.35;4.85;;;25.30;67.40;;;;;;4994074;28;20026;-76
2022/10/11 10:35:24;;;;;;;9.52;4.95;;;25.30;66.20;;;;;;4994049;28;20494;-76
2022/10/11 10:37:55;;;;;;;17.10;5.22;;;25.10;65.70;;;;;;4976932;28;20466;-75
2022/10/11 10:40:31;;;;;;;9.55;4.70;;;25.30;65.80;;;;;;4994497;28;20030;-75
2022/10/11 10:42:57;;;;;;;7.90;4.00;;;25.20;65.70;;;;;;4994492;28;20039;-75
2022/10/11 10:45:32;;;;;;;12.55;4.50;;;25.80;65.30;;;;;;4994031;28;20031;-75
2022/10/11 10:48:07;;;;;;;11.88;4.93;;;26.40;64.60;;;;;;4976882;28;20033;-76
2022/10/11 10:50:56;;;;;;;14.60;4.30;;;26.50;63.00;;;;;;4976584;28;20041;-76
2022/10/11 10:53:36;;;;;;;11.85;5.47;;;27.10;63.60;;;;;;4976755;28;20030;-76
2022/10/11 10:56:32;;;;;;;11.40;4.68;;;28.10;62.00;;;;;;4976763;28;20497;-76
2022/10/11 10:59:19;;;;;;;8.50;4.57;;;28.10;59.60;;;;;;4977217;28;20026;-76
2022/10/11 11:02:00;;;;;;;12.90;4.38;;;28.30;57.80;;;;;;4994036;28;20165;-76
2022/10/11 11:04:33;;;;;;;10.45;4.38;;;28.30;58.70;;;;;;4995389;28;20041;-76
2022/10/11 11:07:17;;;;;;;11.77;4.68;;;28.40;57.70;;;;;;4997911;28;20082;-76
2022/10/11 11:09:50;;;;;;;15.35;4.47;;;28.20;56.80;;;;;;4981113;28;20033;-75
2022/10/11 11:12:23;;;;;;;10.60;3.58;;;28.10;56.10;;;;;;4997744;28;20421;-76
2022/10/11 11:15:04;;;;;;;11.95;2.90;;;28.30;54.40;;;;;;4997849;28;20033;-76
2022/10/11 11:17:55;;;;;;;9.73;4.00;;;28.50;53.40;;;;;;4997932;28;20046;-76
2022/10/11 11:20:32;;;;;;;10.57;3.88;;;28.70;54.60;;;;;;4980262;28;20030;-76
2022/10/11 11:23:39;;;;;;;8.32;3.92;;;28.40;53.80;;;;;;4980369;28;20061;-76
2022/10/11 11:26:23;;;;;;;9.35;3.47;;;27.90;54.60;;;;;;4919593;28;20085;-76
2022/10/11 11:29:20;;;;;;;9.57;3.55;;;28.00;52.60;;;;;;4980105;28;20030;-76
2022/10/11 11:32:13;;;;;;;6.57;3.40;;;27.60;55.00;;;;;;4997322;28;20471;-76
2022/10/11 11:34:46;;;;;;;7.03;3.90;;;28.30;53.40;;;;;;4997776;28;20034;-75
2022/10/11 11:37:33;;;;;;;5.32;3.10;;;28.70;52.00;;;;;;4980034;28;20030;-76
2022/10/11 11:40:15;;;;;;;8.68;3.55;;;28.70;52.30;;;;;;4979965;28;20033;-75
2022/10/11 11:42:47;;;;;;;7.45;3.72;;;29.00;51.40;;;;;;4997416;28;20030;-76
2022/10/11 11:45:44;;;;;;;13.82;4.60;;;27.50;52.50;;;;;;4997412;28;20022;-75
2022/10/11 11:48:18;;;;;;;8.90;2.97;;;25.80;56.70;;;;;;4979988;28;20041;-75
2022/10/11 11:50:51;;;;;;;7.07;3.38;;;24.60;56.30;;;;;;4979763;28;20030;-75
2022/10/11 11:53:31;;;;;;;11.35;3.40;;;23.90;58.90;;;;;;4980013;28;20427;-75
2022/10/11 11:56:10;;;;;;;9.50;3.92;;;23.40;59.80;;;;;;4996972;28;20069;-75
2022/10/11 11:59:03;;;;;;;12.98;3.15;;;23.50;59.90;;;;;;4997119;28;20033;-75
2022/10/11 12:01:45;;;;;;;5.35;2.80;;;24.00;60.40;;;;;;4979753;28;20065;-75
2022/10/11 12:04:34;;;;;;;9.60;3.28;;;24.70;58.20;;;;;;4979508;28;20030;-75
2022/10/11 12:07:22;;;;;;;16.08;3.50;;;25.10;57.90;;;;;;4979220;28;20032;-75
2022/10/11 12:09:51;;;;;;;7.57;3.33;;;25.10;54.60;;;;;;4979625;28;20081;-75
2022/10/11 12:12:28;;;;;;;7.18;2.78;;;25.20;55.50;;;;;;4997077;28;20033;-75
2022/10/11 12:15:24;;;;;;;12.50;3.20;;;26.00;55.10;;;;;;4979306;28;20482;-75
2022/10/11 12:18:04;;;;;;;9.57;2.88;;;26.60;52.50;;;;;;4978514;28;20501;-76
2022/10/11 12:20:31;;;;;;;9.25;2.88;;;26.00;53.90;;;;;;4997065;28;20084;-75
2022/10/11 12:23:22;;;;;;;7.85;3.55;;;25.40;55.10;;;;;;4979151;28;20522;-75
2022/10/11 12:26:26;;;;;;;12.13;3.45;;;24.60;56.50;;;;;;4978965;28;20026;-75
2022/10/11 12:29:04;;;;;;;5.57;2.75;;;23.70;58.80;;;;;;4996981;28;20120;-75
2022/10/11 12:31:34;;;;;;;9.30;3.42;;;22.90;61.00;;;;;;4979752;28;20072;-75
2022/10/11 12:33:59;;;;;;;8.48;3.47;;;22.40;62.70;;;;;;4996920;28;20058;-75
2022/10/11 12:36:31;;;;;;;8.60;2.88;;;22.10;63.40;;;;;;4979338;28;20022;-75
2022/10/11 12:39:18;;;;;;;9.57;3.80;;;21.70;65.60;;;;;;4978748;28;20026;-75
2022/10/11 12:41:50;;;;;;;8.93;3.70;;;21.50;65.90;;;;;;4996067;28;20065;-75
2022/10/11 12:44:23;;;;;;;7.50;3.47;;;21.40;66.70;;;;;;4978614;28;20030;-74
2022/10/11 12:46:55;;;;;;;8.95;4.20;;;21.10;67.00;;;;;;4978750;28;20526;-75
2022/10/11 12:49:32;;;;;;;7.07;2.92;;;21.10;68.60;;;;;;4995934;28;20026;-75
2022/10/11 12:52:02;;;;;;;10.25;3.10;;;21.40;68.20;;;;;;4978495;28;20034;-75
2022/10/11 12:54:50;;;;;;;9.77;2.90;;;21.50;66.40;;;;;;4978643;28;20088;-74
2022/10/11 12:57:34;;;;;;;11.95;3.03;;;21.80;66.60;;;;;;4996201;28;20026;-76